createdAt,value
2022-12-02T00:01:36.408Z,98541.41
2022-12-02T00:04:38.586Z,98545.56
2022-12-02T00:07:40.448Z,98536.00
2022-12-02T00:10:44.215Z,98549.75
2022-12-02T00:13:46.994Z,98533.28
2022-12-02T00:16:51.129Z,98542.81
2022-12-02T00:19:53.445Z,98539.44
2022-12-02T00:22:55.749Z,98538.75
2022-12-02T00:25:57.830Z,98537.91
2022-12-02T00:28:59.807Z,98535.00
2022-12-02T00:32:03.369Z,98537.66
2022-12-02T00:35:05.759Z,98534.88
2022-12-02T00:38:07.495Z,98536.44
2022-12-02T00:41:09.788Z,98540.72
2022-12-02T00:44:30.152Z,98537.13
2022-12-02T00:47:32.227Z,98535.44
2022-12-02T00:50:34.507Z,98535.56
2022-12-02T00:53:36.295Z,98543.13
2022-12-02T00:56:38.525Z,98539.75
2022-12-02T00:59:40.345Z,98535.44
2022-12-02T01:02:42.513Z,98540.59
2022-12-02T01:05:44.389Z,98527.66
2022-12-02T01:08:46.164Z,98538.94
2022-12-02T01:11:48.389Z,98542.41
2022-12-02T01:14:50.486Z,98553.56
2022-12-02T01:17:52.690Z,98538.09
2022-12-02T01:20:54.970Z,98542.41
2022-12-02T01:23:56.706Z,98535.56
2022-12-02T01:26:58.712Z,98544.47
2022-12-02T01:30:00.602Z,98536.00
2022-12-02T01:33:02.475Z,98543.59
2022-12-02T01:36:04.635Z,98539.31
2022-12-02T01:39:10.213Z,98534.16
2022-12-02T01:42:13.868Z,98532.03
2022-12-02T01:45:16.480Z,98533.59
2022-12-02T01:48:19.045Z,98529.09
2022-12-02T01:51:20.830Z,98528.38
2022-12-02T01:54:22.630Z,98527.34
2022-12-02T01:57:29.543Z,98531.09
2022-12-02T02:00:31.792Z,98530.31
2022-12-02T02:03:34.009Z,98531.09
2022-12-02T02:06:39.265Z,98535.31
2022-12-02T02:09:41.532Z,98531.97
2022-12-02T02:12:45.113Z,98533.66
2022-12-02T02:15:47.403Z,98537.91
2022-12-02T02:18:50.171Z,98539.81
2022-12-02T02:21:53.767Z,98534.75
2022-12-02T02:24:55.892Z,98533.91
2022-12-02T02:28:01.912Z,98529.53
2022-12-02T02:31:05.824Z,98533.25
2022-12-02T02:34:13.168Z,98528.34
2022-12-02T02:37:15.057Z,98532.88
2022-12-02T02:40:18.732Z,98529.47
2022-12-02T02:43:23.507Z,98530.31
2022-12-02T02:46:26.375Z,98535.56
2022-12-02T02:49:28.417Z,98535.56
2022-12-02T02:52:30.290Z,98538.97
2022-12-02T02:55:33.192Z,98533.03
2022-12-02T02:58:36.304Z,98532.03
2022-12-02T03:01:39.152Z,98535.44
2022-12-02T03:04:42.084Z,98524.31
2022-12-02T03:07:44.019Z,98535.44
2022-12-02T03:10:46.788Z,98528.34
2022-12-02T03:13:50.571Z,98529.38
2022-12-02T03:16:53.083Z,98525.59
2022-12-02T03:19:55.152Z,98536.50
2022-12-02T03:22:56.988Z,98525.22
2022-12-02T03:25:59.302Z,98526.06
2022-12-02T03:29:02.186Z,98517.69
2022-12-02T03:32:04.913Z,98517.69
2022-12-02T03:35:07.375Z,98514.47
2022-12-02T03:38:11.153Z,98513.03
2022-12-02T03:41:15.861Z,98506.22
2022-12-02T03:44:17.959Z,98505.63
2022-12-02T03:47:19.799Z,98498.84
2022-12-02T03:50:22.020Z,98499.91
2022-12-02T03:53:24.621Z,98496.59
2022-12-02T03:56:26.480Z,98494.88
2022-12-02T03:59:28.926Z,98494.16
2022-12-02T04:02:31.581Z,98498.66
2022-12-02T04:05:33.415Z,98500.38
2022-12-02T04:08:35.559Z,98504.78
2022-12-02T04:11:37.586Z,98505.94
2022-12-02T04:14:39.593Z,98503.41
2022-12-02T04:17:41.607Z,98504.34
2022-12-02T04:20:43.524Z,98506.06
2022-12-02T04:23:45.585Z,98503.53
2022-12-02T04:26:47.454Z,98510.22
2022-12-02T04:29:49.270Z,98509.34
2022-12-02T04:32:51.234Z,98505.78
2022-12-02T04:35:53.320Z,98511.66
2022-12-02T04:38:55.162Z,98511.59
2022-12-02T04:41:57.456Z,98507.41
2022-12-02T04:44:59.673Z,98502.19
2022-12-02T04:48:01.507Z,98507.22
2022-12-02T04:51:04.165Z,98514.16
2022-12-02T04:54:06.033Z,98507.81
2022-12-02T04:57:08.854Z,98519.06
2022-12-02T05:00:11.809Z,98516.28
2022-12-02T05:03:13.836Z,98521.41
2022-12-02T05:06:16.107Z,98525.53
2022-12-02T05:09:18.371Z,98517.72
2022-12-02T05:12:20.825Z,98520.16
2022-12-02T05:15:25.118Z,98532.09
2022-12-02T05:18:27.302Z,98520.84
2022-12-02T05:21:29.505Z,98526.81
2022-12-02T05:24:31.395Z,98537.13
2022-12-02T05:27:35.591Z,98530.19
2022-12-02T05:30:37.657Z,98532.09
2022-12-02T05:33:39.647Z,98531.38
2022-12-02T05:36:41.495Z,98536.41
2022-12-02T05:39:44.558Z,98534.16
2022-12-02T05:42:49.450Z,98533.56
2022-12-02T05:45:51.731Z,98540.50
2022-12-02T05:48:53.811Z,98537.72
2022-12-02T05:52:00.986Z,98535.81
2022-12-02T05:55:12.142Z,98540.50
2022-12-02T05:58:14.689Z,98536.19
2022-12-02T06:01:29.383Z,98544.56
2022-12-02T06:04:33.289Z,98544.09
2022-12-02T06:07:36.547Z,98544.78
2022-12-02T06:10:38.847Z,98548.91
2022-12-02T06:13:41.015Z,98552.97
2022-12-02T06:16:47.621Z,98552.69
2022-12-02T06:19:53.963Z,98560.19
2022-12-02T06:22:57.733Z,98558.50
2022-12-02T06:25:59.960Z,98572.19
2022-12-02T06:29:03.792Z,98573.84
2022-12-02T06:32:06.991Z,98565.03
2022-12-02T06:35:33.019Z,98564.91
2022-12-02T06:38:43.788Z,98572.44
2022-12-02T06:41:46.575Z,98573.66
2022-12-02T06:45:07.257Z,98569.13
2022-12-02T06:48:22.119Z,98561.16
2022-12-02T06:51:24.021Z,98578.13
2022-12-02T06:54:30.072Z,98571.97
2022-12-02T06:57:32.338Z,98562.09
2022-12-02T07:00:34.752Z,98567.72
2022-12-02T07:03:39.056Z,98569.97
2022-12-02T07:06:46.485Z,98576.41
2022-12-02T07:09:57.862Z,98576.53
2022-12-02T07:13:13.114Z,98585.59
2022-12-02T07:16:51.257Z,98589.66
2022-12-02T07:20:11.439Z,98588.13
2022-12-02T07:23:21.522Z,98586.50
2022-12-02T07:26:24.219Z,98590.63
2022-12-02T07:29:30.189Z,98592.22
2022-12-02T07:32:32.261Z,98592.09
2022-12-02T07:35:34.573Z,98593.72
2022-12-02T07:39:04.696Z,98595.31
2022-12-02T07:41:59.108Z,98590.66
2022-12-02T07:45:01.830Z,98600.00
2022-12-02T07:48:05.664Z,98595.75
2022-12-02T07:51:08.326Z,98592.88
2022-12-02T07:54:10.747Z,98591.44
2022-12-02T07:57:12.665Z,98597.22
2022-12-02T08:00:15.509Z,98588.81
2022-12-02T08:03:17.652Z,98589.50
2022-12-02T08:06:19.625Z,98594.09
2022-12-02T08:09:21.586Z,98590.44
2022-12-02T08:12:23.881Z,98589.88
2022-12-02T08:15:26.166Z,98594.44
2022-12-02T08:18:28.721Z,98595.97
2022-12-02T08:21:32.498Z,98595.47
2022-12-02T08:24:34.701Z,98599.00
2022-12-02T08:27:44.982Z,98602.06
2022-12-02T08:30:47.956Z,98601.13
2022-12-02T08:33:50.620Z,98599.31
2022-12-02T08:36:52.728Z,98606.31
2022-12-02T08:39:54.613Z,98607.97
2022-12-02T08:42:56.611Z,98598.09
2022-12-02T08:45:58.761Z,98602.78
2022-12-02T08:49:00.996Z,98598.84
2022-12-02T08:52:03.372Z,98599.06
2022-12-02T08:55:05.872Z,98597.63
2022-12-02T08:58:10.600Z,98603.03
2022-12-02T09:01:12.733Z,98605.25
2022-12-02T09:04:16.045Z,98609.50
2022-12-02T09:07:18.244Z,98606.88
2022-12-02T09:10:21.152Z,98604.91
2022-12-02T09:13:23.543Z,98603.31
2022-12-02T09:16:25.706Z,98596.72
2022-12-02T09:19:28.018Z,98600.50
2022-12-02T09:22:30.208Z,98595.19
2022-12-02T09:25:32.168Z,98599.06
2022-12-02T09:28:34.248Z,98595.69
2022-12-02T09:31:36.350Z,98596.88
2022-12-02T09:34:38.446Z,98602.09
2022-12-02T09:37:40.839Z,98591.84
2022-12-02T09:40:42.920Z,98594.88
2022-12-02T09:43:45.537Z,98584.94
2022-12-02T09:46:47.831Z,98587.50
2022-12-02T09:49:49.879Z,98589.34
2022-12-02T09:52:53.017Z,98591.75
2022-12-02T09:55:56.015Z,98585.28
2022-12-02T09:58:58.271Z,98582.41
2022-12-02T10:02:00.389Z,98579.41
2022-12-02T10:05:20.739Z,98573.34
2022-12-02T10:08:26.428Z,98576.63
2022-12-02T10:11:35.149Z,98573.06
2022-12-02T10:14:38.021Z,98570.88
2022-12-02T10:17:40.370Z,98574.63
2022-12-02T10:20:42.528Z,98565.25
2022-12-02T10:24:09.785Z,98573.50
2022-12-02T10:27:25.261Z,98565.53
2022-12-02T10:30:28.986Z,98558.19
2022-12-02T10:33:33.880Z,98559.50
2022-12-02T10:36:43.493Z,98565.34
2022-12-02T10:39:45.513Z,98560.41
2022-12-02T10:42:48.576Z,98561.91
2022-12-02T10:45:58.355Z,98558.78
2022-12-02T10:49:15.815Z,98556.31
2022-12-02T10:52:20.067Z,98561.50
2022-12-02T10:55:25.052Z,98555.00
2022-12-02T10:58:31.299Z,98565.22
2022-12-02T11:01:33.554Z,98567.16
2022-12-02T11:04:37.002Z,98565.41
2022-12-02T11:07:39.293Z,98565.06
2022-12-02T11:10:43.196Z,98569.53
2022-12-02T11:14:02.538Z,98567.28
2022-12-02T11:17:10.398Z,98570.09
2022-12-02T11:20:31.125Z,98563.59
2022-12-02T11:23:34.652Z,98565.06
2022-12-02T11:27:04.446Z,98560.31
2022-12-02T11:30:07.350Z,98557.88
2022-12-02T11:34:05.662Z,98561.25
2022-12-02T11:37:27.730Z,98557.09
2022-12-02T11:40:32.665Z,98563.91
2022-12-02T11:44:08.680Z,98551.13
2022-12-02T11:47:25.867Z,98554.53
2022-12-02T11:50:28.297Z,98553.94
2022-12-02T11:53:30.324Z,98555.09
2022-12-02T11:56:38.910Z,98553.03
2022-12-02T11:59:41.694Z,98548.91
2022-12-02T12:02:44.480Z,98542.31
2022-12-02T12:06:23.347Z,98544.28
2022-12-02T12:09:25.776Z,98537.03
2022-12-02T12:12:27.895Z,98540.66
2022-12-02T12:15:52.724Z,98531.09
2022-12-02T12:18:57.062Z,98533.84
2022-12-02T12:22:29.837Z,98533.72
2022-12-02T12:25:42.525Z,98529.72
2022-12-02T12:28:44.459Z,98528.34
2022-12-02T12:31:46.753Z,98531.50
2022-12-02T12:34:49.196Z,98530.72
2022-12-02T12:37:51.483Z,98527.41
2022-12-02T12:40:55.174Z,98529.81
2022-12-02T12:43:57.750Z,98523.72
2022-12-02T12:47:04.751Z,98517.75
2022-12-02T12:50:07.518Z,98516.38
2022-12-02T12:53:10.056Z,98517.41
2022-12-02T12:56:12.017Z,98513.75
2022-12-02T12:59:15.387Z,98504.03
2022-12-02T13:02:19.078Z,98510.13
2022-12-02T13:05:21.370Z,98514.66
2022-12-02T13:08:23.876Z,98513.75
2022-12-02T13:11:26.625Z,98511.88
2022-12-02T13:14:28.777Z,98515.78
2022-12-02T13:17:30.874Z,98520.13
2022-12-02T13:20:33.306Z,98522.94
2022-12-02T13:23:37.287Z,98518.41
2022-12-02T13:26:39.307Z,98522.47
2022-12-02T13:29:42.164Z,98523.94
2022-12-02T13:32:48.105Z,98519.63
2022-12-02T13:35:50.274Z,98526.47
2022-12-02T13:38:52.088Z,98525.53
2022-12-02T13:41:57.722Z,98515.94
2022-12-02T13:44:59.856Z,98522.84
2022-12-02T13:48:02.416Z,98527.94
2022-12-02T13:51:04.562Z,98526.59
2022-12-02T13:54:07.231Z,98523.50
2022-12-02T13:57:09.666Z,98525.06
2022-12-02T14:00:13.293Z,98529.88
2022-12-02T14:03:15.412Z,98529.28
2022-12-02T14:06:17.653Z,98531.53
2022-12-02T14:09:20.142Z,98526.84
2022-12-02T14:12:24.713Z,98534.56
2022-12-02T14:15:27.089Z,98527.72
2022-12-02T14:18:29.499Z,98540.84
2022-12-02T14:21:31.685Z,98532.16
2022-12-02T14:24:33.784Z,98533.16
2022-12-02T14:27:36.272Z,98529.50
2022-12-02T14:30:39.118Z,98528.06
2022-12-02T14:34:09.672Z,98536.06
2022-12-02T14:37:03.180Z,98537.84
2022-12-02T14:40:07.988Z,98529.34
2022-12-02T14:43:14.333Z,98536.50
2022-12-02T14:46:16.989Z,98539.09
2022-12-02T14:52:41.293Z,98545.72
2022-12-02T14:55:43.259Z,98546.72
2022-12-02T14:58:46.207Z,98541.53
2022-12-02T15:01:48.489Z,98538.66
2022-12-02T15:04:51.167Z,98547.88
2022-12-02T15:07:53.667Z,98544.34
2022-12-02T15:10:56.032Z,98552.69
2022-12-02T15:13:58.753Z,98552.38
2022-12-02T15:17:00.745Z,98551.53
2022-12-02T15:20:03.055Z,98558.94
2022-12-02T15:23:05.060Z,98552.91
2022-12-02T15:26:07.262Z,98555.50
2022-12-02T15:29:09.734Z,98557.69
2022-12-02T15:32:17.356Z,98561.19
2022-12-02T15:35:21.228Z,98557.59
2022-12-02T15:38:24.764Z,98563.72
2022-12-02T15:41:27.371Z,98560.47
2022-12-02T15:44:29.845Z,98557.53
2022-12-02T15:47:32.695Z,98556.78
2022-12-02T15:50:35.000Z,98560.47
2022-12-02T15:53:37.300Z,98568.59
2022-12-02T15:56:39.730Z,98566.66
2022-12-02T15:59:41.656Z,98569.34
2022-12-02T16:02:44.620Z,98582.09
2022-12-02T16:05:47.037Z,98567.41
2022-12-02T16:08:53.797Z,98573.75
2022-12-02T16:11:57.918Z,98575.19
2022-12-02T16:15:01.170Z,98579.59
2022-12-02T16:18:04.426Z,98581.25
2022-12-02T16:21:07.535Z,98586.63
2022-12-02T16:24:09.849Z,98585.97
2022-12-02T16:27:12.066Z,98585.28
2022-12-02T16:30:15.040Z,98583.47
2022-12-02T16:33:17.256Z,98599.75
2022-12-02T16:36:21.007Z,98599.34
2022-12-02T16:39:23.448Z,98594.06
2022-12-02T16:42:27.298Z,98595.84
2022-12-02T16:45:31.479Z,98601.84
2022-12-02T16:48:34.870Z,98600.00
2022-12-02T16:51:37.489Z,98604.09
2022-12-02T16:54:39.439Z,98606.53
2022-12-02T16:57:42.392Z,98609.47
2022-12-02T17:00:44.433Z,98610.50
2022-12-02T17:03:46.730Z,98609.81
2022-12-02T17:06:49.122Z,98618.25
2022-12-02T17:09:51.549Z,98617.50
2022-12-02T17:12:54.205Z,98626.09
2022-12-02T17:15:56.572Z,98630.94
2022-12-02T17:18:58.963Z,98629.53
2022-12-02T17:22:01.457Z,98641.13
2022-12-02T17:25:03.486Z,98638.53
2022-12-02T17:28:05.857Z,98632.19
2022-12-02T17:31:08.111Z,98636.97
2022-12-02T17:34:11.407Z,98645.44
2022-12-02T17:37:15.951Z,98633.25
2022-12-02T17:40:19.356Z,98633.25
2022-12-02T17:43:21.433Z,98641.53
2022-12-02T17:46:23.493Z,98637.41
2022-12-02T17:49:30.966Z,98643.69
2022-12-02T17:52:37.246Z,98647.66
2022-12-02T17:55:41.864Z,98640.66
2022-12-02T17:58:44.295Z,98638.25
2022-12-02T18:01:46.515Z,98645.88
2022-12-02T18:04:48.574Z,98633.53
2022-12-02T18:07:51.152Z,98643.88
2022-12-02T18:10:53.367Z,98642.69
2022-12-02T18:14:00.753Z,98641.69
2022-12-02T18:17:04.392Z,98643.44
2022-12-02T18:20:07.448Z,98646.63
2022-12-02T18:23:09.448Z,98647.28
2022-12-02T18:26:13.228Z,98657.28
2022-12-02T18:29:15.400Z,98644.19
2022-12-02T18:32:17.675Z,98649.47
2022-12-02T18:35:19.990Z,98656.09
2022-12-02T18:38:21.942Z,98655.09
2022-12-02T18:41:25.769Z,98653.41
2022-12-02T18:44:28.009Z,98651.59
2022-12-02T18:47:30.245Z,98649.44
2022-12-02T18:50:34.649Z,98647.44
2022-12-02T18:53:36.744Z,98644.88
2022-12-02T18:56:41.137Z,98648.44
2022-12-02T18:59:43.059Z,98639.53
2022-12-02T19:02:45.712Z,98647.13
2022-12-02T19:05:48.034Z,98648.13
2022-12-02T19:08:50.202Z,98646.53
2022-12-02T19:16:07.906Z,98645.03
2022-12-02T19:19:09.890Z,98644.09
2022-12-02T19:22:12.728Z,98632.22
2022-12-02T19:25:14.926Z,98638.09
2022-12-02T19:28:17.286Z,98635.41
2022-12-02T19:31:22.421Z,98643.94
2022-12-02T19:34:24.594Z,98636.78
2022-12-02T19:37:27.262Z,98643.09
2022-12-02T19:40:35.737Z,98638.44
2022-12-02T19:43:40.502Z,98644.38
2022-12-02T19:46:43.583Z,98642.94
2022-12-02T19:49:45.743Z,98641.88
2022-12-02T19:52:48.677Z,98638.75
2022-12-02T19:55:51.271Z,98651.81
2022-12-02T19:58:53.846Z,98646.53
2022-12-02T20:02:01.923Z,98654.34
2022-12-02T20:05:05.699Z,98646.31
2022-12-02T20:08:08.425Z,98645.63
2022-12-02T20:11:10.771Z,98644.28
2022-12-02T20:14:13.520Z,98648.03
2022-12-02T20:17:15.686Z,98645.28
2022-12-02T20:20:18.060Z,98644.38
2022-12-02T20:23:20.633Z,98654.13
2022-12-02T20:26:22.810Z,98654.97
2022-12-02T20:29:25.625Z,98645.59
2022-12-02T20:32:28.079Z,98647.28
2022-12-02T20:35:31.095Z,98656.16
2022-12-02T20:38:33.473Z,98653.19
2022-12-02T20:41:35.862Z,98656.91
2022-12-02T20:44:38.132Z,98646.06
2022-12-02T20:47:40.561Z,98649.50
2022-12-02T20:50:44.698Z,98644.22
2022-12-02T20:53:47.683Z,98651.88
2022-12-02T20:56:49.765Z,98651.34
2022-12-02T20:59:53.363Z,98647.78
2022-12-02T21:02:55.418Z,98655.09
2022-12-02T21:05:58.276Z,98650.06
2022-12-02T21:09:00.346Z,98654.19
2022-12-02T21:12:02.628Z,98650.41
2022-12-02T21:15:05.283Z,98656.63
2022-12-02T21:18:08.894Z,98662.84
2022-12-02T21:21:11.307Z,98660.09
2022-12-02T21:24:13.171Z,98663.16
2022-12-02T21:27:16.149Z,98661.47
2022-12-02T21:30:18.460Z,98669.66
2022-12-02T21:33:20.428Z,98662.09
2022-12-02T21:36:22.716Z,98671.75
2022-12-02T21:39:24.786Z,98680.06
2022-12-02T21:42:27.525Z,98674.53
2022-12-02T21:45:30.123Z,98679.78
2022-12-02T21:48:32.198Z,98687.19
2022-12-02T21:51:35.038Z,98682.91
2022-12-02T21:54:37.035Z,98686.25
2022-12-02T21:57:38.862Z,98691.16
2022-12-02T22:00:40.960Z,98695.03
2022-12-02T22:03:44.119Z,98680.81
2022-12-02T22:06:46.970Z,98683.97
2022-12-02T22:09:48.830Z,98679.31
2022-12-02T22:12:51.806Z,98685.72
2022-12-02T22:15:57.492Z,98671.38
2022-12-02T22:19:00.006Z,98680.47
2022-12-02T22:22:02.102Z,98671.84
2022-12-02T22:25:04.824Z,98672.66
2022-12-02T22:28:07.642Z,98671.84
2022-12-02T22:31:09.532Z,98663.75
2022-12-02T22:34:12.289Z,98674.88
2022-12-02T22:37:14.506Z,98663.63
2022-12-02T22:40:16.403Z,98667.41
2022-12-02T22:43:18.670Z,98673.91
2022-12-02T22:46:20.605Z,98674.59
2022-12-02T22:49:23.248Z,98669.28
2022-12-02T22:52:25.291Z,98660.84
2022-12-02T22:55:27.457Z,98661.38
2022-12-02T22:58:30.063Z,98665.88
2022-12-02T23:01:32.448Z,98650.44
2022-12-02T23:04:34.935Z,98650.72
2022-12-02T23:07:37.012Z,98657.91
2022-12-02T23:10:39.114Z,98661.22
2022-12-02T23:13:41.235Z,98654.38
2022-12-02T23:16:43.098Z,98663.66
2022-12-02T23:19:45.245Z,98665.13
2022-12-02T23:22:47.535Z,98672.09
2022-12-02T23:25:49.521Z,98672.50
2022-12-02T23:28:51.712Z,98665.88
2022-12-02T23:31:53.734Z,98682.50
2022-12-02T23:35:02.969Z,98674.44
2022-12-02T23:38:04.837Z,98672.53
2022-12-02T23:41:06.800Z,98677.81
2022-12-02T23:44:09.024Z,98680.53
2022-12-02T23:47:11.472Z,98680.84
2022-12-02T23:50:13.909Z,98683.66
2022-12-02T23:53:15.822Z,98682.19
2022-12-02T23:56:17.684Z,98681.91
2022-12-02T23:59:19.625Z,98680.00
